sensor_id;sensor_type;location;lat;lon;timestamp;pressure;altitude;pressure_sealevel;temperature;humidity
28289;BME280;15558;50.874;6.964;2022-11-15T00:00:46;100599.06;;;14.66;70.29
28289;BME280;15558;50.874;6.964;2022-11-15T00:03:14;100599.75;;;14.63;70.26
28289;BME280;15558;50.874;6.964;2022-11-15T00:05:41;100601.88;;;14.58;70.36
28289;BME280;15558;50.874;6.964;2022-11-15T00:08:07;100598.72;;;14.59;70.24
28289;BME280;15558;50.874;6.964;2022-11-15T00:10:32;100596.72;;;14.51;70.54
28289;BME280;15558;50.874;6.964;2022-11-15T00:12:59;100594.91;;;14.64;70.84
28289;BME280;15558;50.874;6.964;2022-11-15T00:15:25;100586.09;;;14.57;70.76
28289;BME280;15558;50.874;6.964;2022-11-15T00:17:50;100586.28;;;14.69;70.92
28289;BME280;15558;50.874;6.964;2022-11-15T00:20:17;100596.25;;;14.74;70.58
28289;BME280;15558;50.874;6.964;2022-11-15T00:22:43;100583.81;;;14.84;70.43
28289;BME280;15558;50.874;6.964;2022-11-15T00:25:09;100585.13;;;14.86;70.34
28289;BME280;15558;50.874;6.964;2022-11-15T00:27:35;100585.13;;;14.86;70.80
28289;BME280;15558;50.874;6.964;2022-11-15T00:30:00;100590.94;;;14.73;70.61
28289;BME280;15558;50.874;6.964;2022-11-15T00:32:30;100583.81;;;14.84;70.39
28289;BME280;15558;50.874;6.964;2022-11-15T00:34:56;100594.25;;;14.83;70.63
28289;BME280;15558;50.874;6.964;2022-11-15T00:37:22;100592.13;;;14.89;70.89
28289;BME280;15558;50.874;6.964;2022-11-15T00:39:48;100583.31;;;14.73;71.18
28289;BME280;15558;50.874;6.964;2022-11-15T00:42:14;100588.63;;;14.83;70.72
28289;BME280;15558;50.874;6.964;2022-11-15T00:44:40;100580.13;;;14.83;70.70
28289;BME280;15558;50.874;6.964;2022-11-15T00:47:06;100580.31;;;14.78;71.18
28289;BME280;15558;50.874;6.964;2022-11-15T00:49:32;100574.97;;;14.77;71.60
28289;BME280;15558;50.874;6.964;2022-11-15T00:51:58;100574.97;;;14.85;71.54
28289;BME280;15558;50.874;6.964;2022-11-15T00:54:24;100567.50;;;14.89;71.06
28289;BME280;15558;50.874;6.964;2022-11-15T00:56:50;100560.34;;;14.83;71.99
28289;BME280;15558;50.874;6.964;2022-11-15T00:59:16;100568.19;;;14.95;71.76
28289;BME280;15558;50.874;6.964;2022-11-15T01:01:42;100573.34;;;15.01;71.66
28289;BME280;15558;50.874;6.964;2022-11-15T01:04:08;100571.50;;;14.97;71.87
28289;BME280;15558;50.874;6.964;2022-11-15T01:06:33;100564.34;;;15.07;71.65
28289;BME280;15558;50.874;6.964;2022-11-15T01:08:59;100572.66;;;15.04;72.04
28289;BME280;15558;50.874;6.964;2022-11-15T01:11:25;100574.84;;;15.07;71.70
28289;BME280;15558;50.874;6.964;2022-11-15T01:13:51;100567.56;;;15.14;71.56
28289;BME280;15558;50.874;6.964;2022-11-15T01:16:18;100563.06;;;15.13;71.74
28289;BME280;15558;50.874;6.964;2022-11-15T01:18:47;100567.56;;;15.14;71.94
28289;BME280;15558;50.874;6.964;2022-11-15T01:21:16;100569.69;;;15.09;71.86
28289;BME280;15558;50.874;6.964;2022-11-15T01:23:42;100569.00;;;15.04;72.18
28289;BME280;15558;50.874;6.964;2022-11-15T01:26:12;100569.34;;;14.94;72.90
28289;BME280;15558;50.874;6.964;2022-11-15T01:28:40;100560.72;;;15.07;72.30
28289;BME280;15558;50.874;6.964;2022-11-15T01:31:11;100555.06;;;15.07;72.44
28289;BME280;15558;50.874;6.964;2022-11-15T01:33:38;100556.41;;;15.18;72.45
28289;BME280;15558;50.874;6.964;2022-11-15T01:36:06;100562.38;;;15.16;72.40
28289;BME280;15558;50.874;6.964;2022-11-15T01:38:32;100561.91;;;15.23;72.33
28289;BME280;15558;50.874;6.964;2022-11-15T01:40:58;100560.03;;;15.27;72.26
28289;BME280;15558;50.874;6.964;2022-11-15T01:43:33;100561.53;;;15.24;72.68
28289;BME280;15558;50.874;6.964;2022-11-15T01:46:08;100551.56;;;15.18;73.66
28289;BME280;15558;50.874;6.964;2022-11-15T01:48:40;100555.06;;;15.07;73.98
28289;BME280;15558;50.874;6.964;2022-11-15T01:51:09;100546.75;;;15.10;74.16
28289;BME280;15558;50.874;6.964;2022-11-15T01:53:40;100537.63;;;15.13;74.31
28289;BME280;15558;50.874;6.964;2022-11-15T01:56:10;100526.81;;;15.15;73.71
28289;BME280;15558;50.874;6.964;2022-11-15T01:58:38;100530.94;;;15.18;73.48
28289;BME280;15558;50.874;6.964;2022-11-15T02:01:06;100526.78;;;15.32;73.08
28289;BME280;15558;50.874;6.964;2022-11-15T02:03:55;100524.63;;;15.29;72.77
28289;BME280;15558;50.874;6.964;2022-11-15T02:06:23;100541.59;;;15.29;73.05
28289;BME280;15558;50.874;6.964;2022-11-15T02:08:50;100527.44;;;15.38;73.65
28289;BME280;15558;50.874;6.964;2022-11-15T02:11:16;100516.13;;;15.38;73.85
28289;BME280;15558;50.874;6.964;2022-11-15T02:13:43;100512.28;;;15.42;73.48
28289;BME280;15558;50.874;6.964;2022-11-15T02:19:48;100504.25;;;15.52;73.98
28289;BME280;15558;50.874;6.964;2022-11-15T02:22:16;100508.44;;;15.46;73.93
28289;BME280;15558;50.874;6.964;2022-11-15T02:33:26;100494.06;;;15.60;73.92
28289;BME280;15558;50.874;6.964;2022-11-15T02:36:01;100494.03;;;15.68;72.95
28289;BME280;15558;50.874;6.964;2022-11-15T02:41:20;100495.41;;;15.62;72.74
28289;BME280;15558;50.874;6.964;2022-11-15T02:44:23;100489.88;;;15.66;73.85
28289;BME280;15558;50.874;6.964;2022-11-15T02:47:15;100483.38;;;15.74;73.42
28289;BME280;15558;50.874;6.964;2022-11-15T02:49:53;100485.22;;;15.70;73.56
28289;BME280;15558;50.874;6.964;2022-11-15T02:52:22;100477.28;;;15.55;74.20
28289;BME280;15558;50.874;6.964;2022-11-15T02:54:59;100474.72;;;15.70;74.14
28289;BME280;15558;50.874;6.964;2022-11-15T03:05:53;100470.69;;;15.79;72.98
28289;BME280;15558;50.874;6.964;2022-11-15T03:08:30;100471.84;;;15.78;72.79
28289;BME280;15558;50.874;6.964;2022-11-15T03:11:08;100471.03;;;15.78;72.61
28289;BME280;15558;50.874;6.964;2022-11-15T03:13:47;100478.94;;;15.64;72.76
28289;BME280;15558;50.874;6.964;2022-11-15T03:21:39;100472.53;;;15.76;72.60
28289;BME280;15558;50.874;6.964;2022-11-15T03:24:07;100472.84;;;15.82;72.20
28289;BME280;15558;50.874;6.964;2022-11-15T03:26:36;100474.22;;;15.77;72.19
28289;BME280;15558;50.874;6.964;2022-11-15T03:29:37;100466.13;;;15.95;71.80
28289;BME280;15558;50.874;6.964;2022-11-15T03:32:10;100474.66;;;15.87;72.22
28289;BME280;15558;50.874;6.964;2022-11-15T03:37:14;100462.84;;;15.85;72.09
28289;BME280;15558;50.874;6.964;2022-11-15T03:39:42;100457.19;;;15.85;71.83
28289;BME280;15558;50.874;6.964;2022-11-15T03:45:01;100454.75;;;15.75;72.78
28289;BME280;15558;50.874;6.964;2022-11-15T03:47:41;100459.53;;;15.83;72.02
28289;BME280;15558;50.874;6.964;2022-11-15T03:50:15;100469.19;;;15.82;72.15
28289;BME280;15558;50.874;6.964;2022-11-15T03:52:45;100453.38;;;15.81;72.19
28289;BME280;15558;50.874;6.964;2022-11-15T03:55:14;100454.00;;;15.86;72.39
28289;BME280;15558;50.874;6.964;2022-11-15T03:57:41;100451.00;;;15.91;72.29
28289;BME280;15558;50.874;6.964;2022-11-15T04:00:11;100451.03;;;15.83;72.21
28289;BME280;15558;50.874;6.964;2022-11-15T04:02:37;100451.66;;;15.88;72.52
28289;BME280;15558;50.874;6.964;2022-11-15T04:05:04;100453.63;;;15.96;72.58
28289;BME280;15558;50.874;6.964;2022-11-15T04:07:30;100453.28;;;15.98;72.44
28289;BME280;15558;50.874;6.964;2022-11-15T04:09:55;100449.38;;;15.82;72.49
28289;BME280;15558;50.874;6.964;2022-11-15T04:12:38;100449.91;;;15.76;72.39
28289;BME280;15558;50.874;6.964;2022-11-15T04:15:09;100442.19;;;15.84;72.66
28289;BME280;15558;50.874;6.964;2022-11-15T04:17:43;100440.97;;;15.94;72.40
28289;BME280;15558;50.874;6.964;2022-11-15T04:23:22;100436.84;;;15.91;72.17
28289;BME280;15558;50.874;6.964;2022-11-15T04:26:12;100439.41;;;16.05;71.80
28289;BME280;15558;50.874;6.964;2022-11-15T04:28:40;100431.47;;;15.98;71.89
28289;BME280;15558;50.874;6.964;2022-11-15T04:31:25;100435.59;;;15.72;73.03
28289;BME280;15558;50.874;6.964;2022-11-15T04:33:51;100446.69;;;15.85;72.50
28289;BME280;15558;50.874;6.964;2022-11-15T04:36:17;100440.53;;;15.83;73.13
28289;BME280;15558;50.874;6.964;2022-11-15T04:39:03;100440.34;;;15.88;72.49
28289;BME280;15558;50.874;6.964;2022-11-15T04:41:29;100441.22;;;15.80;72.88
28289;BME280;15558;50.874;6.964;2022-11-15T04:43:55;100445.56;;;15.78;73.27
28289;BME280;15558;50.874;6.964;2022-11-15T04:46:22;100444.53;;;15.82;73.34
28289;BME280;15558;50.874;6.964;2022-11-15T04:48:49;100441.47;;;15.96;72.55
28289;BME280;15558;50.874;6.964;2022-11-15T04:51:16;100434.25;;;16.07;72.45
28289;BME280;15558;50.874;6.964;2022-11-15T04:53:42;100438.59;;;16.04;72.12
28289;BME280;15558;50.874;6.964;2022-11-15T04:56:08;100438.09;;;16.02;71.84
28289;BME280;15558;50.874;6.964;2022-11-15T04:58:34;100446.66;;;15.94;72.10
28289;BME280;15558;50.874;6.964;2022-11-15T05:01:08;100445.47;;;15.95;72.56
28289;BME280;15558;50.874;6.964;2022-11-15T05:03:34;100448.50;;;15.90;73.07
28289;BME280;15558;50.874;6.964;2022-11-15T05:06:18;100450.19;;;15.82;73.06
28289;BME280;15558;50.874;6.964;2022-11-15T05:08:44;100452.47;;;15.97;72.77
28289;BME280;15558;50.874;6.964;2022-11-15T05:11:10;100447.84;;;15.84;73.06
28289;BME280;15558;50.874;6.964;2022-11-15T05:13:36;100441.91;;;15.78;73.51
28289;BME280;15558;50.874;6.964;2022-11-15T05:16:02;100443.97;;;15.97;73.15
28289;BME280;15558;50.874;6.964;2022-11-15T05:18:28;100441.38;;;15.84;73.16
28289;BME280;15558;50.874;6.964;2022-11-15T05:20:54;100448.84;;;15.88;72.87
28289;BME280;15558;50.874;6.964;2022-11-15T05:23:20;100452.84;;;15.87;73.36
28289;BME280;15558;50.874;6.964;2022-11-15T05:25:46;100451.28;;;15.98;73.04
28289;BME280;15558;50.874;6.964;2022-11-15T05:28:12;100454.88;;;16.07;72.32
28289;BME280;15558;50.874;6.964;2022-11-15T05:30:38;100450.41;;;16.06;72.66
28289;BME280;15558;50.874;6.964;2022-11-15T05:33:04;100455.13;;;15.94;72.99
28289;BME280;15558;50.874;6.964;2022-11-15T05:35:34;100450.59;;;16.01;72.56
28289;BME280;15558;50.874;6.964;2022-11-15T05:38:02;100448.72;;;16.05;72.26
28289;BME280;15558;50.874;6.964;2022-11-15T05:40:29;100453.41;;;16.01;72.42
28289;BME280;15558;50.874;6.964;2022-11-15T05:42:56;100445.34;;;15.91;72.48
28289;BME280;15558;50.874;6.964;2022-11-15T05:45:23;100447.47;;;15.94;72.24
28289;BME280;15558;50.874;6.964;2022-11-15T05:47:49;100450.31;;;15.94;71.88
28289;BME280;15558;50.874;6.964;2022-11-15T05:50:18;100441.13;;;15.97;71.90
28289;BME280;15558;50.874;6.964;2022-11-15T05:52:45;100435.66;;;15.92;72.57
28289;BME280;15558;50.874;6.964;2022-11-15T05:55:11;100444.34;;;15.87;72.42
28289;BME280;15558;50.874;6.964;2022-11-15T05:57:38;100444.31;;;15.96;71.92
28289;BME280;15558;50.874;6.964;2022-11-15T06:00:04;100452.91;;;15.99;71.22
28289;BME280;15558;50.874;6.964;2022-11-15T06:02:30;100445.13;;;15.96;71.12
28289;BME280;15558;50.874;6.964;2022-11-15T06:04:56;100457.00;;;15.90;71.07
28289;BME280;15558;50.874;6.964;2022-11-15T06:07:22;100453.34;;;15.89;71.04
28289;BME280;15558;50.874;6.964;2022-11-15T06:09:48;100462.97;;;15.88;70.87
28289;BME280;15558;50.874;6.964;2022-11-15T06:12:14;100465.28;;;15.95;70.45
28289;BME280;15558;50.874;6.964;2022-11-15T06:14:40;100461.66;;;15.86;70.38
28289;BME280;15558;50.874;6.964;2022-11-15T06:17:06;100465.28;;;15.66;70.85
28289;BME280;15558;50.874;6.964;2022-11-15T06:19:32;100470.78;;;15.63;70.97
28289;BME280;15558;50.874;6.964;2022-11-15T06:22:01;100473.06;;;15.69;70.73
28289;BME280;15558;50.874;6.964;2022-11-15T06:24:27;100474.75;;;15.62;70.63
28289;BME280;15558;50.874;6.964;2022-11-15T06:26:53;100473.94;;;15.61;70.45
28289;BME280;15558;50.874;6.964;2022-11-15T06:29:19;100482.13;;;15.54;70.94
28289;BME280;15558;50.874;6.964;2022-11-15T06:31:45;100485.75;;;15.63;70.20
28289;BME280;15558;50.874;6.964;2022-11-15T06:34:11;100481.44;;;15.57;70.17
28289;BME280;15558;50.874;6.964;2022-11-15T06:36:37;100488.78;;;15.58;69.89
28289;BME280;15558;50.874;6.964;2022-11-15T06:39:04;100489.78;;;15.54;69.96
28289;BME280;15558;50.874;6.964;2022-11-15T06:41:34;100492.66;;;15.45;69.97
28289;BME280;15558;50.874;6.964;2022-11-15T06:44:00;100497.28;;;15.50;69.84
28289;BME280;15558;50.874;6.964;2022-11-15T06:46:26;100497.94;;;15.47;69.50
28289;BME280;15558;50.874;6.964;2022-11-15T06:48:52;100510.94;;;15.48;69.44
28289;BME280;15558;50.874;6.964;2022-11-15T06:51:19;100506.31;;;15.35;69.90
28289;BME280;15558;50.874;6.964;2022-11-15T06:53:45;100503.97;;;15.37;69.45
28289;BME280;15558;50.874;6.964;2022-11-15T06:56:11;100493.34;;;15.34;69.70
28289;BME280;15558;50.874;6.964;2022-11-15T06:58:37;100505.44;;;15.43;69.72
28289;BME280;15558;50.874;6.964;2022-11-15T07:01:09;100502.78;;;15.46;69.11
28289;BME280;15558;50.874;6.964;2022-11-15T07:03:36;100499.63;;;15.48;69.37
28289;BME280;15558;50.874;6.964;2022-11-15T07:06:02;100493.47;;;15.46;68.64
28289;BME280;15558;50.874;6.964;2022-11-15T07:08:29;100498.31;;;15.45;68.84
28289;BME280;15558;50.874;6.964;2022-11-15T07:11:00;100513.59;;;15.44;68.51
28289;BME280;15558;50.874;6.964;2022-11-15T07:13:28;100513.28;;;15.46;68.73
28289;BME280;15558;50.874;6.964;2022-11-15T07:15:55;100513.38;;;15.58;68.10
28289;BME280;15558;50.874;6.964;2022-11-15T07:18:21;100514.06;;;15.55;68.12
28289;BME280;15558;50.874;6.964;2022-11-15T07:20:47;100512.28;;;15.42;68.50
28289;BME280;15558;50.874;6.964;2022-11-15T07:23:12;100517.25;;;15.45;68.26
28289;BME280;15558;50.874;6.964;2022-11-15T07:25:38;100518.56;;;15.47;67.88
28289;BME280;15558;50.874;6.964;2022-11-15T07:28:04;100517.59;;;15.52;67.70
28289;BME280;15558;50.874;6.964;2022-11-15T07:30:30;100524.72;;;15.49;67.41
28289;BME280;15558;50.874;6.964;2022-11-15T07:33:00;100525.25;;;15.43;67.86
28289;BME280;15558;50.874;6.964;2022-11-15T07:35:27;100535.56;;;15.56;67.30
28289;BME280;15558;50.874;6.964;2022-11-15T07:37:57;100538.50;;;15.59;66.89
28289;BME280;15558;50.874;6.964;2022-11-15T07:40:25;100539.69;;;15.58;66.84
28289;BME280;15558;50.874;6.964;2022-11-15T07:42:52;100547.72;;;15.48;67.37
28289;BME280;15558;50.874;6.964;2022-11-15T07:45:24;100549.69;;;15.56;67.24
28289;BME280;15558;50.874;6.964;2022-11-15T07:47:52;100557.03;;;15.48;67.11
28289;BME280;15558;50.874;6.964;2022-11-15T07:50:18;100553.47;;;15.60;66.78
28289;BME280;15558;50.874;6.964;2022-11-15T07:52:45;100549.97;;;15.71;66.66
28289;BME280;15558;50.874;6.964;2022-11-15T07:55:11;100555.44;;;15.76;66.40
28289;BME280;15558;50.874;6.964;2022-11-15T07:57:37;100546.97;;;15.68;66.94
28289;BME280;15558;50.874;6.964;2022-11-15T08:00:04;100545.13;;;15.72;66.48
28289;BME280;15558;50.874;6.964;2022-11-15T08:02:30;100551.66;;;15.64;67.23
28289;BME280;15558;50.874;6.964;2022-11-15T08:04:56;100548.63;;;15.77;66.71
28289;BME280;15558;50.874;6.964;2022-11-15T08:07:22;100531.84;;;15.64;66.85
28289;BME280;15558;50.874;6.964;2022-11-15T08:09:48;100538.78;;;15.83;65.93
28289;BME280;15558;50.874;6.964;2022-11-15T08:12:14;100530.34;;;15.66;65.78
28289;BME280;15558;50.874;6.964;2022-11-15T08:14:40;100533.66;;;15.77;65.64
28289;BME280;15558;50.874;6.964;2022-11-15T08:17:06;100528.56;;;15.90;65.33
28289;BME280;15558;50.874;6.964;2022-11-15T08:19:32;100538.53;;;15.96;65.14
28289;BME280;15558;50.874;6.964;2022-11-15T08:21:58;100534.06;;;15.95;64.65
28289;BME280;15558;50.874;6.964;2022-11-15T08:24:24;100532.06;;;15.96;64.75
28289;BME280;15558;50.874;6.964;2022-11-15T08:26:50;100538.19;;;16.06;64.34
28289;BME280;15558;50.874;6.964;2022-11-15T08:29:16;100536.50;;;16.05;64.37
28289;BME280;15558;50.874;6.964;2022-11-15T08:31:42;100527.81;;;16.18;64.06
28289;BME280;15558;50.874;6.964;2022-11-15T08:34:08;100531.25;;;16.24;63.47
28289;BME280;15558;50.874;6.964;2022-11-15T08:36:34;100534.81;;;16.13;63.80
28289;BME280;15558;50.874;6.964;2022-11-15T08:39:00;100531.22;;;16.32;62.87
28289;BME280;15558;50.874;6.964;2022-11-15T08:41:33;100532.56;;;16.35;62.69
28289;BME280;15558;50.874;6.964;2022-11-15T08:43:59;100527.59;;;16.52;62.18
28289;BME280;15558;50.874;6.964;2022-11-15T08:46:25;100520.66;;;16.70;61.43
28289;BME280;15558;50.874;6.964;2022-11-15T08:48:51;100510.31;;;16.85;61.04
28289;BME280;15558;50.874;6.964;2022-11-15T08:51:17;100506.19;;;16.83;60.44
28289;BME280;15558;50.874;6.964;2022-11-15T08:53:43;100507.81;;;17.04;59.95
28289;BME280;15558;50.874;6.964;2022-11-15T08:56:11;100510.19;;;17.22;59.63
28289;BME280;15558;50.874;6.964;2022-11-15T08:58:37;100504.50;;;17.55;58.59
28289;BME280;15558;50.874;6.964;2022-11-15T09:01:04;100492.97;;;17.95;58.37
28289;BME280;15558;50.874;6.964;2022-11-15T09:03:30;100506.03;;;18.31;56.91
28289;BME280;15558;50.874;6.964;2022-11-15T09:06:21;100492.78;;;18.35;56.06
28289;BME280;15558;50.874;6.964;2022-11-15T09:08:47;100501.75;;;18.14;56.20
28289;BME280;15558;50.874;6.964;2022-11-15T09:11:14;100500.78;;;18.45;55.30
28289;BME280;15558;50.874;6.964;2022-11-15T09:13:42;100496.53;;;18.51;55.06
28289;BME280;15558;50.874;6.964;2022-11-15T09:16:08;100490.75;;;18.36;55.26
28289;BME280;15558;50.874;6.964;2022-11-15T09:18:34;100493.81;;;18.31;55.46
28289;BME280;15558;50.874;6.964;2022-11-15T09:21:00;100480.81;;;18.30;55.95
28289;BME280;15558;50.874;6.964;2022-11-15T09:23:27;100478.09;;;18.72;54.21
28289;BME280;15558;50.874;6.964;2022-11-15T09:26:01;100479.34;;;18.60;54.21
28289;BME280;15558;50.874;6.964;2022-11-15T09:28:29;100475.19;;;18.57;53.84
28289;BME280;15558;50.874;6.964;2022-11-15T09:30:59;100486.09;;;18.67;53.77
28289;BME280;15558;50.874;6.964;2022-11-15T09:33:26;100490.63;;;18.32;53.61
28289;BME280;15558;50.874;6.964;2022-11-15T09:35:52;100479.50;;;18.16;52.85
28289;BME280;15558;50.874;6.964;2022-11-15T09:38:20;100472.03;;;17.99;55.13
28289;BME280;15558;50.874;6.964;2022-11-15T09:40:50;100474.41;;;17.86;54.57
28289;BME280;15558;50.874;6.964;2022-11-15T09:43:31;100470.47;;;17.78;54.38
28289;BME280;15558;50.874;6.964;2022-11-15T09:46:53;100474.97;;;17.79;53.30
28289;BME280;15558;50.874;6.964;2022-11-15T09:49:21;100459.56;;;17.68;53.81
28289;BME280;15558;50.874;6.964;2022-11-15T09:51:51;100455.56;;;17.69;54.65
28289;BME280;15558;50.874;6.964;2022-11-15T09:54:32;100460.53;;;17.72;54.03
28289;BME280;15558;50.874;6.964;2022-11-15T10:05:44;100430.47;;;17.83;53.43
28289;BME280;15558;50.874;6.964;2022-11-15T10:11:01;100410.72;;;17.87;50.81
28289;BME280;15558;50.874;6.964;2022-11-15T10:13:32;100409.91;;;17.86;51.88
28289;BME280;15558;50.874;6.964;2022-11-15T10:16:36;100407.19;;;18.13;52.03
28289;BME280;15558;50.874;6.964;2022-11-15T10:19:19;100401.31;;;18.45;52.80
28289;BME280;15558;50.874;6.964;2022-11-15T10:21:57;100394.81;;;18.45;51.90
28289;BME280;15558;50.874;6.964;2022-11-15T10:24:28;100385.78;;;18.55;50.94
28289;BME280;15558;50.874;6.964;2022-11-15T10:26:55;100394.66;;;18.53;51.94
28289;BME280;15558;50.874;6.964;2022-11-15T10:29:23;100384.84;;;18.51;50.56
28289;BME280;15558;50.874;6.964;2022-11-15T10:31:49;100390.25;;;18.56;50.60
28289;BME280;15558;50.874;6.964;2022-11-15T10:34:21;100379.91;;;18.48;49.91
28289;BME280;15558;50.874;6.964;2022-11-15T10:37:00;100389.84;;;18.42;49.95
28289;BME280;15558;50.874;6.964;2022-11-15T10:39:27;100384.19;;;18.30;50.48
28289;BME280;15558;50.874;6.964;2022-11-15T10:41:54;100385.59;;;18.48;48.65
28289;BME280;15558;50.874;6.964;2022-11-15T10:44:30;100382.03;;;18.39;49.33
28289;BME280;15558;50.874;6.964;2022-11-15T10:49:29;100369.41;;;18.63;48.53
28289;BME280;15558;50.874;6.964;2022-11-15T10:52:02;100363.03;;;18.55;47.89
28289;BME280;15558;50.874;6.964;2022-11-15T10:57:21;100359.81;;;18.29;46.35
28289;BME280;15558;50.874;6.964;2022-11-15T10:59:51;100362.13;;;18.39;46.03
28289;BME280;15558;50.874;6.964;2022-11-15T11:02:37;100359.56;;;18.34;45.69
28289;BME280;15558;50.874;6.964;2022-11-15T11:05:12;100353.53;;;18.35;46.17
28289;BME280;15558;50.874;6.964;2022-11-15T11:08:00;100352.06;;;18.41;46.42
28289;BME280;15558;50.874;6.964;2022-11-15T11:10:27;100337.31;;;18.63;45.32
28289;BME280;15558;50.874;6.964;2022-11-15T11:12:53;100343.28;;;18.73;45.42
28289;BME280;15558;50.874;6.964;2022-11-15T11:15:19;100355.09;;;18.60;46.02
28289;BME280;15558;50.874;6.964;2022-11-15T11:20:42;100352.19;;;18.45;46.75
28289;BME280;15558;50.874;6.964;2022-11-15T11:26:29;100333.53;;;18.59;45.96
28289;BME280;15558;50.874;6.964;2022-11-15T11:29:19;100331.03;;;18.58;46.95
28289;BME280;15558;50.874;6.964;2022-11-15T11:39:55;100310.56;;;18.79;47.05
28289;BME280;15558;50.874;6.964;2022-11-15T11:44:58;100312.50;;;18.48;46.48
28289;BME280;15558;50.874;6.964;2022-11-15T11:47:38;100303.06;;;18.60;46.73
28289;BME280;15558;50.874;6.964;2022-11-15T11:50:18;100310.47;;;18.76;46.43
28289;BME280;15558;50.874;6.964;2022-11-15T11:53:11;100308.97;;;18.66;47.25
28289;BME280;15558;50.874;6.964;2022-11-15T11:55:45;100314.75;;;18.70;46.87
28289;BME280;15558;50.874;6.964;2022-11-15T12:01:19;100307.66;;;18.64;47.31
28289;BME280;15558;50.874;6.964;2022-11-15T12:04:09;100299.09;;;18.76;47.57
28289;BME280;15558;50.874;6.964;2022-11-15T12:09:23;100289.47;;;18.80;47.41
28289;BME280;15558;50.874;6.964;2022-11-15T12:12:06;100286.06;;;18.75;47.73
28289;BME280;15558;50.874;6.964;2022-11-15T12:17:11;100271.63;;;18.68;48.05
28289;BME280;15558;50.874;6.964;2022-11-15T12:19:38;100260.81;;;18.58;48.01
28289;BME280;15558;50.874;6.964;2022-11-15T12:22:11;100252.00;;;18.48;48.24
28289;BME280;15558;50.874;6.964;2022-11-15T12:24:45;100247.88;;;18.61;48.64
28289;BME280;15558;50.874;6.964;2022-11-15T12:27:31;100250.69;;;18.45;48.57
28289;BME280;15558;50.874;6.964;2022-11-15T12:30:01;100247.28;;;18.40;48.47
28289;BME280;15558;50.874;6.964;2022-11-15T12:32:32;100247.16;;;18.63;48.41
28289;BME280;15558;50.874;6.964;2022-11-15T12:35:00;100241.16;;;18.38;48.25
28289;BME280;15558;50.874;6.964;2022-11-15T12:37:47;100234.09;;;18.47;48.82
28289;BME280;15558;50.874;6.964;2022-11-15T12:45:35;100214.59;;;18.46;49.70
28289;BME280;15558;50.874;6.964;2022-11-15T12:51:00;100207.34;;;18.63;49.39
28289;BME280;15558;50.874;6.964;2022-11-15T12:53:32;100198.56;;;18.68;49.03
28289;BME280;15558;50.874;6.964;2022-11-15T12:58:55;100176.44;;;18.62;48.83
28289;BME280;15558;50.874;6.964;2022-11-15T13:04:24;100178.28;;;18.70;48.91
28289;BME280;15558;50.874;6.964;2022-11-15T13:19:53;100162.03;;;18.55;52.59
28289;BME280;15558;50.874;6.964;2022-11-15T13:22:22;100162.25;;;18.77;52.20
28289;BME280;15558;50.874;6.964;2022-11-15T13:30:54;100133.88;;;18.65;52.47
28289;BME280;15558;50.874;6.964;2022-11-15T13:33:26;100130.78;;;18.70;52.39
28289;BME280;15558;50.874;6.964;2022-11-15T13:36:00;100136.63;;;18.62;52.57
28289;BME280;15558;50.874;6.964;2022-11-15T13:38:33;100124.63;;;18.53;53.16
28289;BME280;15558;50.874;6.964;2022-11-15T13:41:00;100120.06;;;18.49;53.10
28289;BME280;15558;50.874;6.964;2022-11-15T13:43:35;100113.81;;;18.59;53.24
28289;BME280;15558;50.874;6.964;2022-11-15T13:48:44;100117.38;;;18.40;53.31
28289;BME280;15558;50.874;6.964;2022-11-15T13:56:54;100104.28;;;18.36;53.42
28289;BME280;15558;50.874;6.964;2022-11-15T13:59:37;100090.44;;;18.34;53.50
28289;BME280;15558;50.874;6.964;2022-11-15T14:02:21;100097.84;;;18.39;53.49
28289;BME280;15558;50.874;6.964;2022-11-15T14:04:53;100086.41;;;18.51;53.14
28289;BME280;15558;50.874;6.964;2022-11-15T14:07:24;100088.31;;;18.47;53.14
28289;BME280;15558;50.874;6.964;2022-11-15T14:09:51;100085.84;;;18.61;52.98
28289;BME280;15558;50.874;6.964;2022-11-15T14:12:34;100079.88;;;18.65;53.49
28289;BME280;15558;50.874;6.964;2022-11-15T14:15:38;100077.50;;;18.67;53.27
28289;BME280;15558;50.874;6.964;2022-11-15T14:18:05;100066.22;;;18.71;53.29
28289;BME280;15558;50.874;6.964;2022-11-15T14:20:37;100069.31;;;18.66;53.35
28289;BME280;15558;50.874;6.964;2022-11-15T14:23:24;100059.53;;;18.63;53.37
28289;BME280;15558;50.874;6.964;2022-11-15T14:25:55;100051.44;;;18.65;53.29
28289;BME280;15558;50.874;6.964;2022-11-15T14:30:48;100051.19;;;18.70;53.21
28289;BME280;15558;50.874;6.964;2022-11-15T14:33:20;100035.69;;;18.53;53.45
28289;BME280;15558;50.874;6.964;2022-11-15T14:35:47;100023.41;;;18.49;53.64
28289;BME280;15558;50.874;6.964;2022-11-15T14:38:13;100033.06;;;18.44;53.72
28289;BME280;15558;50.874;6.964;2022-11-15T14:40:40;100024.94;;;18.62;53.37
28289;BME280;15558;50.874;6.964;2022-11-15T14:43:10;100027.97;;;18.68;53.13
28289;BME280;15558;50.874;6.964;2022-11-15T14:45:37;100019.41;;;18.50;53.65
28289;BME280;15558;50.874;6.964;2022-11-15T14:48:04;100025.88;;;18.65;53.35
28289;BME280;15558;50.874;6.964;2022-11-15T14:50:31;100010.47;;;18.51;54.00
28289;BME280;15558;50.874;6.964;2022-11-15T14:52:58;100009.56;;;18.63;53.86
28289;BME280;15558;50.874;6.964;2022-11-15T14:55:30;100012.09;;;18.67;53.36
28289;BME280;15558;50.874;6.964;2022-11-15T14:58:01;100000.84;;;18.56;53.56
28289;BME280;15558;50.874;6.964;2022-11-15T15:00:30;100000.72;;;18.67;53.30
28289;BME280;15558;50.874;6.964;2022-11-15T15:02:56;99995.25;;;18.59;53.60
28289;BME280;15558;50.874;6.964;2022-11-15T15:05:36;99992.97;;;18.64;53.54
28289;BME280;15558;50.874;6.964;2022-11-15T15:08:03;99982.88;;;18.52;53.74